Hovedside
METAR-TAF:

METAR-TAF

Lufthavner :

Björneborg lufthavn

Björneborg, Finland

breddegrad: 61-28N, lengdegrad: 021-48E, høyde over havet: 13 m

Gjeldene værobservasjon

Denne rapporten ble laget for 25 minutter siden, klokken 04:50 UTC
Vind 14 kt fra Nordvest
Temperatur 1°C
Luftfuktighet 64%
Trykk 1023 hPa
Sikt 10 km eller mer
ingen skyer under 1500 m og ingen bygeskyer

METAR: EFPO 220450Z AUTO 31014KT CAVOK 01/M05 Q1023

Tid: 07:15 (05:15 UTC)

Varsel

Denne rapporten ble laget for 8 timer og 44 minutter siden, klokken 20:31 UTC
Varsel gyldig fra 21. klokken 21 UTC til 21. klokken 23 UTC
Vind 15 kt fra Nordvest
Sikt 10 km eller mer
ingen skyer under 1500 m og ingen bygeskyer
Midlertidig
fra 21. klokken 21 UTC til 21. klokken 23 UTC
Vind 17 kt fra Nordvest med vindkast opp mot 28 kt

TAF: EFPO 212031Z 2121/2123 31015KT CAVOK TEMPO 2121/2123 31017G28KT

Værobservasjoner og værvarsel for over 4000 flyplasser (METAR- og TAF-rapporter).

Tilgjengelige stasjoner er representert av de røde og gule prikkene på kartet.

Hold musepekeren over prikken for å se navnet på stasjonen.

Klikk så for å se værobservasjoner og -varsler.

For å forandre kartet kan du klikke på den grønne knappen med svart kryss for å zoome inn, på den grønne knappen med strek for å zoome ut, eller på de grønne pilene for å se tilstøtende kart.


METAR-TAF: